Time;durP1;ratioP1;P1;durP2;ratioP2;P2;SDS_P1;SDS_P2;PMS_P1;PMS_P2;Temp;Humidity;BMP_temperature;BMP_pressure;BME280_temperature;BME280_humidity;BME280_pressure;Samples;Min_cycle;Max_cycle;Signal;HPM_P1;HPM_P2
2023/01/26 00:02:07;;;;;;;14.55;12.52;;;;;;;-1.41;100.00;99037.53;15305155;19;20474;-87
2023/01/26 00:07:32;;;;;;;15.10;12.88;;;;;;;-1.40;100.00;99033.97;15308715;19;20014;-86
2023/01/26 00:12:59;;;;;;;12.30;10.82;;;;;;;-1.42;100.00;99020.84;15312043;19;20105;-85
2023/01/26 00:18:26;;;;;;;13.05;11.73;;;;;;;-1.42;100.00;99030.53;15313122;19;20019;-85
2023/01/26 00:23:52;;;;;;;14.57;12.35;;;;;;;-1.43;100.00;99015.59;15307438;19;20019;-86
2023/01/26 00:29:16;;;;;;;14.15;12.40;;;;;;;-1.47;100.00;99004.31;15311870;19;20017;-85
2023/01/26 00:34:44;;;;;;;21.55;17.10;;;;;;;-1.48;100.00;99012.31;15309867;19;20032;-85
2023/01/26 00:40:08;;;;;;;23.95;18.50;;;;;;;-1.67;100.00;99010.50;15324204;19;20022;-85
2023/01/26 00:45:33;;;;;;;29.08;19.40;;;;;;;-1.74;100.00;99022.28;15309739;19;20386;-85
2023/01/26 00:51:01;;;;;;;29.48;20.05;;;;;;;-1.76;100.00;99026.78;15307756;19;20043;-86
2023/01/26 00:56:26;;;;;;;33.70;21.05;;;;;;;-1.76;100.00;99026.78;15302494;19;20035;-85
2023/01/26 01:01:51;;;;;;;29.42;18.75;;;;;;;-1.90;100.00;99037.97;15296677;19;20030;-84
2023/01/26 01:07:20;;;;;;;29.55;18.35;;;;;;;-1.98;100.00;99038.28;15291906;19;20014;-84
2023/01/26 01:12:38;;;;;;;31.15;18.98;;;;;;;-2.02;100.00;99037.59;15289024;19;20054;-85
2023/01/26 01:18:03;;;;;;;39.10;19.27;;;;;;;-2.06;100.00;99041.25;15287828;19;20013;-85
2023/01/26 01:23:32;;;;;;;38.47;20.52;;;;;;;-2.13;100.00;99044.22;15286952;19;20035;-84
2023/01/26 01:28:57;;;;;;;52.47;20.63;;;;;;;-2.15;100.00;99043.44;14771589;19;10000505;-85
2023/01/26 01:34:23;;;;;;;41.33;20.02;;;;;;;-2.20;100.00;99044.50;15287785;19;20081;-84
2023/01/26 01:39:51;;;;;;;37.15;18.95;;;;;;;-2.19;100.00;99040.06;15278822;19;20477;-84
2023/01/26 01:45:44;;;;;;;42.00;20.13;;;;;;;-2.25;100.00;99032.44;15284144;19;20026;-84
2023/01/26 01:51:14;;;;;;;37.80;19.48;;;;;;;-2.13;100.00;99028.38;15283511;19;20491;-84
2023/01/26 01:56:53;;;;;;;32.05;18.75;;;;;;;-2.18;100.00;99026.81;15293952;19;20045;-85
2023/01/26 02:02:26;;;;;;;28.20;17.20;;;;;;;-2.16;100.00;99026.75;15349445;19;20040;-83
2023/01/26 02:07:54;;;;;;;34.00;17.35;;;;;;;-2.21;100.00;99021.66;15299313;19;20190;-86
2023/01/26 02:13:24;;;;;;;30.77;17.58;;;;;;;-2.21;100.00;99008.47;15288286;19;20018;-83
2023/01/26 02:18:49;;;;;;;26.25;16.27;;;;;;;-2.23;100.00;99006.81;15286746;19;20327;-84
2023/01/26 02:24:22;;;;;;;27.30;16.52;;;;;;;-2.30;100.00;99000.97;15282405;19;20470;-83
2023/01/26 02:29:50;;;;;;;27.73;16.40;;;;;;;-2.25;100.00;98993.69;15280426;19;20031;-84
2023/01/26 02:35:15;;;;;;;33.72;15.55;;;;;;;-2.29;100.00;98981.53;15285984;19;20054;-85
2023/01/26 02:40:48;;;;;;;29.50;15.95;;;;;;;-2.28;100.00;98988.53;15284056;19;20024;-84
2023/01/26 02:46:15;;;;;;;28.17;16.50;;;;;;;-2.28;100.00;98985.88;15277388;19;20351;-85
2023/01/26 02:51:41;;;;;;;33.53;15.98;;;;;;;-2.24;100.00;98979.56;15287045;19;20033;-84
2023/01/26 02:57:06;;;;;;;36.17;16.20;;;;;;;-2.25;100.00;98977.00;15284316;19;20027;-86
2023/01/26 03:02:33;;;;;;;33.03;18.10;;;;;;;-2.23;100.00;98964.56;15273993;19;20019;-83
2023/01/26 03:07:58;;;;;;;32.95;17.25;;;;;;;-2.31;100.00;98964.94;15273843;19;20011;-84
2023/01/26 03:13:22;;;;;;;39.20;17.73;;;;;;;-2.38;100.00;98961.69;15274131;19;20014;-85
2023/01/26 03:30:04;;;;;;;27.70;15.82;;;;;;;-2.36;100.00;98944.03;15270945;19;20023;-83
2023/01/26 03:35:33;;;;;;;27.25;16.40;;;;;;;-2.42;100.00;98941.63;15272880;19;20109;-84
2023/01/26 03:57:56;;;;;;;27.37;15.83;;;;;;;-2.42;100.00;98924.97;15280666;19;20010;-83
2023/01/26 04:09:02;;;;;;;28.10;15.13;;;;;;;-2.52;100.00;98922.69;15285429;19;20023;-84
2023/01/26 04:25:51;;;;;;;34.35;17.35;;;;;;;-2.65;100.00;98930.28;15275186;19;20361;-82
2023/01/26 04:31:17;;;;;;;35.58;17.90;;;;;;;-2.61;100.00;98932.81;15284646;19;21157;-81
2023/01/26 04:36:43;;;;;;;30.77;16.58;;;;;;;-2.67;100.00;98939.19;15277701;19;20383;-82
2023/01/26 04:42:15;;;;;;;28.17;15.25;;;;;;;-2.72;100.00;98928.84;15286499;19;20027;-83
2023/01/26 04:47:43;;;;;;;26.70;14.45;;;;;;;-2.73;100.00;98929.78;15279567;19;20046;-82
2023/01/26 04:53:09;;;;;;;25.95;14.05;;;;;;;-2.73;100.00;98926.25;15287292;19;20021;-83
2023/01/26 04:58:43;;;;;;;25.00;13.68;;;;;;;-2.76;100.00;98924.63;15290100;19;20023;-83
2023/01/26 05:04:09;;;;;;;28.10;14.55;;;;;;;-2.74;100.00;98929.81;15286801;19;20014;-82
2023/01/26 05:09:34;;;;;;;24.00;13.35;;;;;;;-2.73;100.00;98931.53;15299429;19;20011;-83
2023/01/26 05:15:20;;;;;;;24.77;13.00;;;;;;;-2.72;100.00;98930.63;15328233;19;20015;-83
2023/01/26 05:20:52;;;;;;;20.48;12.18;;;;;;;-2.68;100.00;98932.22;15275844;19;20031;-83
2023/01/26 05:26:27;;;;;;;16.45;10.68;;;;;;;-2.66;100.00;98935.66;15274858;19;20035;-82
2023/01/26 05:31:59;;;;;;;18.52;10.45;;;;;;;-2.65;100.00;98929.44;15281639;19;20413;-83
2023/01/26 05:37:28;;;;;;;19.75;10.70;;;;;;;-2.63;100.00;98935.50;15283869;19;20478;-83
2023/01/26 05:42:54;;;;;;;19.38;10.13;;;;;;;-2.60;100.00;98935.38;15289376;19;20096;-83
2023/01/26 05:48:51;;;;;;;17.13;10.15;;;;;;;-2.55;100.00;98936.03;15292974;19;20019;-84
2023/01/26 05:54:10;;;;;;;17.75;10.30;;;;;;;-2.51;100.00;98939.41;15289662;19;20054;-82
2023/01/26 05:59:41;;;;;;;16.80;10.07;;;;;;;-2.50;100.00;98941.13;15279744;19;20006;-82
2023/01/26 06:05:10;;;;;;;14.73;9.07;;;;;;;-2.59;100.00;98950.28;15278242;19;20022;-82
2023/01/26 06:10:35;;;;;;;16.90;9.77;;;;;;;-2.59;100.00;98942.34;15278463;19;20111;-82
2023/01/26 06:16:18;;;;;;;16.88;9.65;;;;;;;-2.58;100.00;98935.28;15279934;19;20026;-82
2023/01/26 06:21:46;;;;;;;15.32;9.20;;;;;;;-2.57;100.00;98943.16;15280354;19;20022;-83
2023/01/26 06:27:14;;;;;;;14.82;9.00;;;;;;;-2.56;100.00;98942.25;15275069;19;20361;-83
2023/01/26 06:32:42;;;;;;;15.17;9.67;;;;;;;-2.53;100.00;98934.16;15274778;19;20038;-81
2023/01/26 06:38:09;;;;;;;13.75;8.80;;;;;;;-2.50;100.00;98931.41;15278618;19;20024;-82
2023/01/26 06:43:37;;;;;;;13.60;8.07;;;;;;;-2.48;100.00;98918.16;15276141;19;20018;-81
2023/01/26 06:49:03;;;;;;;13.07;8.80;;;;;;;-2.47;100.00;98933.06;15276362;19;20025;-82
2023/01/26 06:54:32;;;;;;;15.57;9.07;;;;;;;-2.50;100.00;98941.97;15273339;19;20018;-82
2023/01/26 07:00:12;;;;;;;17.10;10.05;;;;;;;-2.53;100.00;98938.59;15272198;19;20011;-83
2023/01/26 07:05:40;;;;;;;20.17;10.52;;;;;;;-2.61;100.00;98933.66;15271329;19;20028;-84
2023/01/26 07:11:08;;;;;;;15.77;10.15;;;;;;;-2.58;100.00;98945.84;15288819;19;20015;-83
2023/01/26 07:16:34;;;;;;;16.92;9.95;;;;;;;-2.61;100.00;98949.47;15284364;19;20011;-84
2023/01/26 07:21:58;;;;;;;18.90;11.02;;;;;;;-2.66;100.00;98962.03;15292555;19;20015;-82
2023/01/26 07:27:26;;;;;;;17.23;10.65;;;;;;;-2.68;100.00;98950.66;15285104;19;20094;-82
2023/01/26 07:32:51;;;;;;;18.58;10.52;;;;;;;-2.70;100.00;98947.22;15288789;19;20014;-82
2023/01/26 07:38:17;;;;;;;18.60;11.00;;;;;;;-2.73;100.00;98945.59;15289669;19;20010;-83
2023/01/26 07:43:46;;;;;;;18.38;11.35;;;;;;;-2.82;100.00;98936.28;15291706;19;20014;-84
2023/01/26 07:49:13;;;;;;;20.67;12.10;;;;;;;-2.74;100.00;98940.38;15294639;19;20098;-82
2023/01/26 07:54:37;;;;;;;19.50;11.63;;;;;;;-2.73;100.00;98942.97;15290511;19;20011;-83
2023/01/26 08:00:11;;;;;;;14.98;10.15;;;;;;;-2.70;100.00;98939.31;15291475;19;20014;-84
2023/01/26 08:05:37;;;;;;;15.73;10.50;;;;;;;-2.71;100.00;98938.47;15285395;19;20102;-84
2023/01/26 08:11:04;;;;;;;15.43;9.73;;;;;;;-2.69;100.00;98933.13;15294369;19;20081;-84
2023/01/26 08:16:32;;;;;;;13.75;8.82;;;;;;;-2.75;100.00;98942.16;15285850;19;20026;-83
2023/01/26 08:21:56;;;;;;;13.82;9.27;;;;;;;-2.75;100.00;98936.00;15278394;19;20014;-84
2023/01/26 08:27:22;;;;;;;13.70;9.68;;;;;;;-2.72;100.00;98930.63;15342782;19;20014;-83
2023/01/26 08:32:49;;;;;;;10.85;8.13;;;;;;;-2.76;100.00;98934.31;15295416;19;20368;-82
2023/01/26 08:38:15;;;;;;;12.18;8.95;;;;;;;-2.70;100.00;98929.63;15278992;19;20039;-82
2023/01/26 08:43:39;;;;;;;13.10;8.98;;;;;;;-2.65;100.00;98934.72;15275941;19;20038;-83
2023/01/26 08:49:07;;;;;;;13.05;8.77;;;;;;;-2.65;100.00;98948.75;15282091;19;20019;-83
2023/01/26 08:54:32;;;;;;;11.98;8.65;;;;;;;-2.73;100.00;98939.44;15285901;19;20018;-82
2023/01/26 09:00:04;;;;;;;11.57;8.68;;;;;;;-2.77;100.00;98948.44;15282731;19;20015;-82
2023/01/26 09:05:34;;;;;;;14.45;9.48;;;;;;;-2.76;100.00;98950.16;15282615;19;20483;-82
2023/01/26 09:10:59;;;;;;;11.93;8.23;;;;;;;-2.80;100.00;98958.19;15283646;19;20081;-83
2023/01/26 09:16:25;;;;;;;10.23;7.72;;;;;;;-2.83;100.00;98954.81;15291515;19;20021;-83
2023/01/26 09:21:52;;;;;;;13.60;9.50;;;;;;;-2.84;100.00;98951.31;15288657;19;20379;-82
2023/01/26 09:27:17;;;;;;;12.88;8.52;;;;;;;-2.81;100.00;98964.38;15279495;19;20534;-83
2023/01/26 09:32:42;;;;;;;12.15;8.38;;;;;;;-2.79;100.00;98962.53;15284180;19;20019;-83
2023/01/26 09:38:10;;;;;;;11.80;8.88;;;;;;;-2.76;100.00;98958.91;15283559;19;20022;-83
2023/01/26 09:43:43;;;;;;;12.82;9.73;;;;;;;-2.82;100.00;98967.06;15278224;19;20011;-82
2023/01/26 09:49:14;;;;;;;14.65;10.07;;;;;;;-2.83;100.00;98971.47;15287291;19;20082;-83
2023/01/26 09:54:46;;;;;;;10.57;8.50;;;;;;;-2.83;100.00;98966.22;15278099;19;20022;-83
2023/01/26 10:00:21;;;;;;;13.50;10.07;;;;;;;-2.82;100.00;98967.06;15276472;19;20018;-83
2023/01/26 10:05:53;;;;;;;12.30;9.13;;;;;;;-2.80;100.00;98955.53;15274228;19;20019;-82
2023/01/26 10:11:50;;;;;;;12.63;9.98;;;;;;;-2.83;100.00;98950.38;15279165;19;20011;-83
2023/01/26 10:17:22;;;;;;;11.45;8.68;;;;;;;-2.76;100.00;98955.41;15267510;19;20022;-83
2023/01/26 10:22:51;;;;;;;7.38;6.50;;;;;;;-2.73;100.00;98936.81;15278947;19;20028;-82
2023/01/26 10:28:25;;;;;;;8.18;6.78;;;;;;;-2.79;100.00;98909.78;15274174;19;20022;-83
2023/01/26 10:33:54;;;;;;;7.53;6.53;;;;;;;-2.67;100.00;98913.66;15280276;19;20600;-82
2023/01/26 10:39:22;;;;;;;10.52;7.63;;;;;;;-2.69;100.00;98912.03;15278185;19;20030;-82
2023/01/26 10:44:52;;;;;;;10.57;9.05;;;;;;;-2.75;100.00;98899.09;15274409;19;20018;-82
2023/01/26 10:50:30;;;;;;;11.95;9.82;;;;;;;-2.83;100.00;98891.53;15276944;19;20010;-83
2023/01/26 10:56:03;;;;;;;13.43;9.23;;;;;;;-2.84;100.00;98906.47;15274829;19;20026;-82
2023/01/26 11:01:39;;;;;;;13.15;10.40;;;;;;;-2.88;100.00;98894.34;15278374;19;20021;-83
2023/01/26 11:07:27;;;;;;;14.80;11.10;;;;;;;-2.79;100.00;98903.63;15275389;19;20023;-83
2023/01/26 11:12:52;;;;;;;19.77;11.25;;;;;;;-2.79;100.00;98901.00;15275455;19;20019;-82
2023/01/26 11:18:43;;;;;;;17.65;12.57;;;;;;;-2.88;100.00;98899.59;15275614;19;20470;-83
2023/01/26 11:24:12;;;;;;;14.65;11.43;;;;;;;-2.90;100.00;98901.47;15270545;19;20091;-82
2023/01/26 11:29:51;;;;;;;12.07;9.52;;;;;;;-2.92;100.00;98898.03;15278889;19;20812;-82
2023/01/26 11:35:30;;;;;;;15.32;10.50;;;;;;;-2.96;100.00;98889.41;15322467;19;20015;-84
2023/01/26 11:41:05;;;;;;;14.20;10.93;;;;;;;-2.91;100.00;98883.94;15324676;19;20471;-83
2023/01/26 11:46:42;;;;;;;16.77;12.23;;;;;;;-2.89;100.00;98882.09;15265418;19;20028;-82
2023/01/26 11:52:21;;;;;;;14.45;10.98;;;;;;;-2.86;100.00;98873.19;15266780;19;20018;-81
2023/01/26 11:58:04;;;;;;;18.42;11.63;;;;;;;-2.88;100.00;98867.13;15279529;19;20024;-84
2023/01/26 12:03:36;;;;;;;15.32;10.60;;;;;;;-2.96;100.00;98870.09;15282112;19;20010;-82
2023/01/26 12:09:10;;;;;;;16.48;11.60;;;;;;;-2.96;100.00;98867.44;15277374;19;20375;-82
2023/01/26 12:14:43;;;;;;;13.95;10.45;;;;;;;-2.99;100.00;98859.66;15287021;19;20026;-83
2023/01/26 12:20:20;;;;;;;12.32;9.88;;;;;;;-2.97;100.00;98861.34;15286028;19;20022;-83
2023/01/26 12:25:51;;;;;;;15.63;11.38;;;;;;;-2.93;100.00;98846.22;15273170;19;20018;-81
2023/01/26 12:31:20;;;;;;;15.48;9.77;;;;;;;-2.96;100.00;98843.72;15285051;19;20011;-81
2023/01/26 12:36:54;;;;;;;14.10;10.35;;;;;;;-2.88;100.00;98836.31;15276182;19;20358;-80
2023/01/26 12:42:29;;;;;;;14.27;11.18;;;;;;;-2.82;100.00;98828.16;15284831;19;20131;-80
2023/01/26 12:47:59;;;;;;;15.40;10.90;;;;;;;-2.86;100.00;98823.94;15276937;19;20022;-83
2023/01/26 12:53:30;;;;;;;19.02;12.30;;;;;;;-2.82;100.00;98822.88;15286380;19;20397;-80
2023/01/26 12:59:00;;;;;;;17.88;12.07;;;;;;;-2.75;100.00;98812.06;15280466;19;20013;-82
2023/01/26 13:04:25;;;;;;;14.93;11.25;;;;;;;-2.74;100.00;98806.75;15282640;19;20015;-83
2023/01/26 13:10:25;;;;;;;15.85;11.00;;;;;;;-2.76;100.00;98795.41;15281248;19;20511;-84
2023/01/26 13:15:52;;;;;;;15.23;11.52;;;;;;;-2.84;100.00;98806.28;15276358;19;20066;-82
2023/01/26 13:21:29;;;;;;;20.77;11.50;;;;;;;-2.90;100.00;98814.47;15280870;19;20498;-82
2023/01/26 13:26:55;;;;;;;24.60;12.50;;;;;;;-2.90;100.00;98821.50;15305836;19;20086;-81
2023/01/26 13:32:56;;;;;;;20.10;12.80;;;;;;;-2.96;100.00;98827.91;15290240;19;20122;-81
2023/01/26 13:38:33;;;;;;;29.40;12.93;;;;;;;-3.06;100.00;98821.31;15287054;19;20020;-82
2023/01/26 13:44:06;;;;;;;23.00;12.52;;;;;;;-2.93;100.00;98833.06;15291815;19;20014;-82
2023/01/26 13:49:33;;;;;;;19.13;13.00;;;;;;;-2.92;100.00;98836.53;15288863;19;20029;-83
2023/01/26 13:55:03;;;;;;;19.88;13.77;;;;;;;-2.95;100.00;98840.16;15289188;19;20022;-82
2023/01/26 14:00:28;;;;;;;20.95;14.82;;;;;;;-2.99;100.00;98833.28;15289086;19;20014;-83
2023/01/26 14:05:55;;;;;;;19.52;13.88;;;;;;;-3.04;100.00;98840.56;15288813;19;20022;-86
2023/01/26 14:11:28;;;;;;;29.05;15.18;;;;;;;-3.04;100.00;98851.09;15291953;19;20010;-82
2023/01/26 14:16:53;;;;;;;36.50;15.85;;;;;;;-3.11;100.00;98840.81;15282431;19;20226;-83
2023/01/26 14:22:21;;;;;;;31.73;16.40;;;;;;;-3.10;100.00;98850.44;15288208;19;20022;-82
2023/01/26 14:27:49;;;;;;;25.15;15.50;;;;;;;-3.15;100.00;98849.78;15280419;19;20039;-82
2023/01/26 14:33:20;;;;;;;35.13;15.25;;;;;;;-3.16;100.00;98853.34;15283758;19;20015;-82
2023/01/26 14:38:48;;;;;;;37.25;15.82;;;;;;;-3.16;100.00;98866.50;15285494;19;20468;-83
2023/01/26 14:44:19;;;;;;;70.45;16.83;;;;;;;-3.18;100.00;98860.44;15324644;19;20015;-82
2023/01/26 14:49:49;;;;;;;33.05;16.48;;;;;;;-3.13;100.00;98858.50;15290345;19;20011;-81
2023/01/26 14:55:22;;;;;;;26.00;15.38;;;;;;;-3.16;100.00;98869.16;15279462;19;20079;-83
2023/01/26 15:00:52;;;;;;;24.98;14.75;;;;;;;-3.12;100.00;98864.59;15276878;19;20346;-81
2023/01/26 15:06:28;;;;;;;29.77;15.02;;;;;;;-3.15;100.00;98860.31;15270699;19;20037;-81
2023/01/26 15:17:46;;;;;;;152.95;18.10;;;;;;;-3.18;100.00;98860.44;15276950;19;20026;-81
2023/01/26 15:23:24;;;;;;;94.32;19.05;;;;;;;-3.21;100.00;98860.56;15276736;19;20014;-81
2023/01/26 15:28:50;;;;;;;90.22;18.17;;;;;;;-3.25;100.00;98865.09;15276408;19;20365;-82
2023/01/26 15:34:35;;;;;;;55.22;18.48;;;;;;;-3.30;100.00;98861.81;15291447;19;20031;-81
2023/01/26 15:39:59;;;;;;;147.30;21.95;;;;;;;-3.33;100.00;98861.06;15290866;19;20506;-81
2023/01/26 15:45:27;;;;;;;98.50;20.40;;;;;;;-3.34;100.00;98875.16;15287777;19;20066;-81
2023/01/26 15:50:55;;;;;;;138.77;20.75;;;;;;;-3.41;100.00;98880.69;15285339;19;20085;-84
2023/01/26 15:56:20;;;;;;;264.33;26.25;;;;;;;-3.41;100.00;98888.59;15284955;19;20014;-81
2023/01/26 16:01:52;;;;;;;415.65;32.58;;;;;;;-3.46;100.00;98890.53;15277059;19;20018;-81
2023/01/26 16:07:21;;;;;;;377.45;31.25;;;;;;;-3.54;100.00;98894.44;15278965;19;20488;-81
2023/01/26 16:12:47;;;;;;;239.45;29.73;;;;;;;-3.60;100.00;98891.09;15286137;19;20022;-81
2023/01/26 16:18:13;;;;;;;232.68;30.77;;;;;;;-3.66;100.00;98901.03;15283497;19;20018;-80
2023/01/26 16:23:40;;;;;;;270.98;32.83;;;;;;;-3.71;100.00;98903.84;15286527;19;20010;-81
2023/01/26 16:29:05;;;;;;;209.13;33.15;;;;;;;-3.73;100.00;98906.53;15282429;19;20022;-82
2023/01/26 16:34:29;;;;;;;195.57;30.90;;;;;;;-3.75;100.00;98913.63;15286197;19;20011;-82
2023/01/26 16:39:57;;;;;;;164.60;29.52;;;;;;;-3.76;100.00;98913.66;15284128;19;20023;-81
2023/01/26 16:45:25;;;;;;;209.77;29.95;;;;;;;-3.76;100.00;98911.91;15279643;19;20042;-83
2023/01/26 16:50:53;;;;;;;306.20;32.70;;;;;;;-3.74;100.00;98909.22;15287262;19;20730;-83
2023/01/26 16:56:22;;;;;;;287.33;34.22;;;;;;;-3.74;100.00;98912.72;15284137;19;20502;-81
2023/01/26 17:01:48;;;;;;;277.80;32.55;;;;;;;-3.73;100.00;98906.53;15288544;19;20025;-84
2023/01/26 17:07:12;;;;;;;346.73;31.92;;;;;;;-3.72;100.00;98917.91;15286091;19;20011;-82
2023/01/26 17:12:40;;;;;;;162.27;29.98;;;;;;;-3.70;100.00;98912.59;15290356;19;20250;-82
2023/01/26 17:18:05;;;;;;;190.27;32.05;;;;;;;-3.70;100.00;98909.97;15288778;19;20018;-82
2023/01/26 17:23:30;;;;;;;183.43;31.08;;;;;;;-3.68;100.00;98919.53;15289081;19;20010;-81
2023/01/26 17:29:00;;;;;;;155.73;30.08;;;;;;;-3.65;100.00;98929.06;15285053;19;20011;-82
2023/01/26 17:34:25;;;;;;;191.15;31.42;;;;;;;-3.60;100.00;98921.88;15291355;19;20727;-82
2023/01/26 17:39:50;;;;;;;140.48;30.30;;;;;;;-3.60;100.00;98921.88;15297301;19;20015;-84
2023/01/26 17:45:19;;;;;;;215.10;31.17;;;;;;;-3.63;100.00;98921.97;15294913;19;20037;-83
2023/01/26 17:50:43;;;;;;;266.38;32.92;;;;;;;-3.60;100.00;98921.88;15293918;19;20032;-82
2023/01/26 17:56:10;;;;;;;197.48;30.13;;;;;;;-3.60;100.00;98927.13;15331732;19;20019;-83
2023/01/26 18:01:45;;;;;;;201.77;29.58;;;;;;;-3.60;100.00;98922.72;15291376;19;20021;-83
2023/01/26 18:07:10;;;;;;;135.07;28.85;;;;;;;-3.61;100.00;98925.41;15291344;19;20054;-82
2023/01/26 18:12:36;;;;;;;134.63;27.15;;;;;;;-3.57;100.00;98921.72;15308223;19;20018;-83
2023/01/26 18:18:05;;;;;;;84.53;27.40;;;;;;;-3.57;100.00;98927.88;15294917;19;20391;-83
2023/01/26 18:23:31;;;;;;;105.90;27.52;;;;;;;-3.56;100.00;98920.81;15289222;19;20015;-82
2023/01/26 18:28:57;;;;;;;92.68;26.27;;;;;;;-3.53;100.00;98923.31;15274636;19;20359;-81
2023/01/26 18:34:24;;;;;;;68.45;26.48;;;;;;;-3.49;100.00;98921.44;15280082;19;20018;-81
2023/01/26 18:39:49;;;;;;;59.30;24.50;;;;;;;-3.49;100.00;98922.31;15284172;19;20031;-83
2023/01/26 18:45:15;;;;;;;56.95;23.02;;;;;;;-3.50;100.00;98917.06;15280143;19;20026;-83
2023/01/26 18:50:44;;;;;;;52.45;23.23;;;;;;;-3.53;100.00;98920.69;15282979;19;20050;-84
2023/01/26 18:56:10;;;;;;;42.30;21.88;;;;;;;-3.50;100.00;98919.72;15278311;19;20078;-81
2023/01/26 19:01:43;;;;;;;38.40;21.15;;;;;;;-3.50;100.00;98912.69;15279517;19;20026;-84
2023/01/26 19:07:30;;;;;;;40.38;21.55;;;;;;;-3.49;100.00;98919.66;15293705;19;20017;-82
2023/01/26 19:12:57;;;;;;;36.20;19.85;;;;;;;-3.48;100.00;98917.88;15299962;19;20014;-81
2023/01/26 19:18:34;;;;;;;33.47;18.95;;;;;;;-3.50;100.00;98922.34;15302392;19;20086;-84
2023/01/26 19:24:06;;;;;;;37.28;20.17;;;;;;;-3.50;100.00;98915.31;15306693;19;20027;-83
2023/01/26 19:29:32;;;;;;;37.80;19.88;;;;;;;-3.52;100.00;98906.59;15298021;19;20010;-85
2023/01/26 19:34:58;;;;;;;39.47;20.52;;;;;;;-3.51;100.00;98910.97;15296996;19;20014;-85
2023/01/26 19:40:26;;;;;;;38.78;20.95;;;;;;;-3.52;100.00;98905.72;15324692;19;20025;-85
2023/01/26 19:45:55;;;;;;;43.88;22.00;;;;;;;-3.50;100.00;98906.53;15301386;19;20021;-84
2023/01/26 19:51:30;;;;;;;44.78;22.02;;;;;;;-3.52;100.00;98906.59;15327299;19;20029;-82
2023/01/26 19:57:17;;;;;;;47.72;22.75;;;;;;;-3.52;100.00;98914.50;15299333;19;20019;-84
2023/01/26 20:08:09;;;;;;;58.90;24.15;;;;;;;-3.50;100.00;98904.78;15308416;19;20045;-85
2023/01/26 20:13:47;;;;;;;59.67;26.00;;;;;;;-3.48;100.00;98921.38;15314890;19;20018;-83
2023/01/26 20:19:14;;;;;;;55.28;24.55;;;;;;;-3.47;100.00;98906.44;15310190;19;20032;-83
2023/01/26 20:24:41;;;;;;;59.10;25.02;;;;;;;-3.46;100.00;98914.25;15311988;19;20017;-83
2023/01/26 20:30:12;;;;;;;53.75;25.08;;;;;;;-3.42;100.00;98910.59;15300929;19;20022;-84
2023/01/26 20:36:23;;;;;;;;;;;;;;;;;;;;;
2023/01/26 20:41:51;;;;;;;55.70;25.63;;;;;;;-3.39;100.00;98906.97;15302422;19;20011;-82
2023/01/26 20:47:31;;;;;;;57.80;25.60;;;;;;;-3.38;100.00;98906.06;15303512;19;20027;-86
2023/01/26 20:52:58;;;;;;;61.55;24.73;;;;;;;-3.41;100.00;98917.56;15311558;19;20033;-85
2023/01/26 20:58:22;;;;;;;57.42;24.55;;;;;;;-3.36;100.00;98906.00;15312256;19;20025;-83
2023/01/26 21:09:37;;;;;;;59.03;25.33;;;;;;;-3.32;100.00;98912.84;15360099;19;19991;-83
2023/01/26 21:15:02;;;;;;;52.50;23.83;;;;;;;-3.28;100.00;98917.94;15311172;19;20031;-82
2023/01/26 21:20:29;;;;;;;55.08;25.35;;;;;;;-3.29;100.00;98913.56;15304757;19;20025;-82
2023/01/26 21:25:57;;;;;;;61.33;26.88;;;;;;;-3.26;100.00;98923.16;15302162;19;20041;-82
2023/01/26 21:31:24;;;;;;;57.58;25.20;;;;;;;-3.22;100.00;98916.81;15299095;19;20027;-83
2023/01/26 21:36:48;;;;;;;52.60;24.83;;;;;;;-3.18;100.00;98918.44;15301194;19;20018;-82
2023/01/26 21:42:16;;;;;;;50.92;23.13;;;;;;;-3.17;100.00;98909.59;15302876;19;20018;-83
2023/01/26 21:47:40;;;;;;;57.30;24.80;;;;;;;-3.12;100.00;98917.31;15302139;19;20026;-83
2023/01/26 21:53:07;;;;;;;51.03;22.98;;;;;;;-3.09;100.00;98917.19;15303770;19;20548;-83
2023/01/26 22:04:14;;;;;;;48.50;22.63;;;;;;;-3.03;100.00;98911.66;15297463;19;20017;-82
2023/01/26 22:09:39;;;;;;;50.90;22.45;;;;;;;-3.03;100.00;98916.09;15299128;19;20017;-82
2023/01/26 22:15:10;;;;;;;58.38;22.70;;;;;;;-3.04;100.00;98911.72;15296154;19;20041;-82
2023/01/26 22:20:35;;;;;;;50.17;23.23;;;;;;;-3.01;100.00;98914.25;15303193;19;20017;-84
2023/01/26 22:26:21;;;;;;;49.83;21.45;;;;;;;-3.03;100.00;98901.13;15301272;19;20018;-85
2023/01/26 22:31:51;;;;;;;53.47;22.60;;;;;;;-3.06;100.00;98896.00;15301034;19;20025;-85
2023/01/26 22:37:30;;;;;;;50.60;22.38;;;;;;;-3.03;100.00;98892.38;15298025;19;20055;-85
2023/01/26 22:43:00;;;;;;;51.85;22.88;;;;;;;-3.01;100.00;98885.25;15305932;19;20026;-82
2023/01/26 22:48:28;;;;;;;43.80;20.90;;;;;;;-3.00;100.00;98890.44;15319147;19;20018;-81
2023/01/26 22:53:53;;;;;;;56.53;22.20;;;;;;;-2.93;100.00;98891.06;15322303;19;20014;-82
2023/01/26 22:59:19;;;;;;;47.05;21.30;;;;;;;-2.94;100.00;98889.34;15304384;19;20011;-82
2023/01/26 23:04:48;;;;;;;40.67;19.42;;;;;;;-2.94;100.00;98874.34;15302076;19;20620;-83
2023/01/26 23:10:18;;;;;;;41.88;19.77;;;;;;;-2.88;100.00;98881.16;15303738;19;20023;-83
2023/01/26 23:21:33;;;;;;;42.63;20.65;;;;;;;-2.84;100.00;98880.09;15293613;19;20476;-85
2023/01/26 23:27:10;;;;;;;45.30;21.02;;;;;;;-2.87;100.00;98879.38;15285904;19;20018;-82
2023/01/26 23:33:07;;;;;;;43.05;19.63;;;;;;;-2.88;100.00;98878.50;15290326;19;20017;-83
2023/01/26 23:38:35;;;;;;;45.08;19.17;;;;;;;-2.91;100.00;98873.41;15291929;19;20007;-85
2023/01/26 23:43:59;;;;;;;42.63;19.38;;;;;;;-2.83;100.00;98876.56;15290050;19;20086;-82
2023/01/26 23:49:25;;;;;;;51.30;20.45;;;;;;;-2.79;100.00;98893.09;15287528;19;20067;-82
2023/01/26 23:54:53;;;;;;;40.80;18.27;;;;;;;-2.76;100.00;98892.97;15303953;19;20006;-84
